sensor_id;sensor_type;location;lat;lon;timestamp;P1;durP1;ratioP1;P2;durP2;ratioP2
10731;SDS011;5417;42.686;23.244;2023-09-08T00:00:10;10.33;;;9.03;;
10731;SDS011;5417;42.686;23.244;2023-09-08T00:02:42;10.37;;;9.33;;
10731;SDS011;5417;42.686;23.244;2023-09-08T00:05:29;10.17;;;9.17;;
10731;SDS011;5417;42.686;23.244;2023-09-08T00:07:56;11.27;;;10.13;;
10731;SDS011;5417;42.686;23.244;2023-09-08T00:13:42;10.70;;;9.80;;
10731;SDS011;5417;42.686;23.244;2023-09-08T00:16:11;11.20;;;10.20;;
10731;SDS011;5417;42.686;23.244;2023-09-08T00:18:38;11.50;;;10.50;;
10731;SDS011;5417;42.686;23.244;2023-09-08T00:21:05;11.17;;;10.23;;
10731;SDS011;5417;42.686;23.244;2023-09-08T00:23:40;12.37;;;10.43;;
10731;SDS011;5417;42.686;23.244;2023-09-08T00:26:46;10.33;;;9.53;;
10731;SDS011;5417;42.686;23.244;2023-09-08T00:32:00;10.33;;;9.43;;
10731;SDS011;5417;42.686;23.244;2023-09-08T00:34:31;8.80;;;8.20;;
10731;SDS011;5417;42.686;23.244;2023-09-08T00:37:04;9.33;;;8.53;;
10731;SDS011;5417;42.686;23.244;2023-09-08T00:40:12;8.10;;;7.40;;
10731;SDS011;5417;42.686;23.244;2023-09-08T00:45:21;8.03;;;7.33;;
10731;SDS011;5417;42.686;23.244;2023-09-08T00:47:50;7.80;;;7.10;;
10731;SDS011;5417;42.686;23.244;2023-09-08T00:50:20;7.07;;;6.63;;
10731;SDS011;5417;42.686;23.244;2023-09-08T00:53:25;9.87;;;8.00;;
10731;SDS011;5417;42.686;23.244;2023-09-08T00:56:56;7.70;;;7.00;;
10731;SDS011;5417;42.686;23.244;2023-09-08T00:58:55;7.97;;;6.80;;
10731;SDS011;5417;42.686;23.244;2023-09-08T01:01:22;6.60;;;6.10;;
10731;SDS011;5417;42.686;23.244;2023-09-08T01:06:32;7.63;;;6.93;;
10731;SDS011;5417;42.686;23.244;2023-09-08T01:09:32;7.47;;;6.37;;
10731;SDS011;5417;42.686;23.244;2023-09-08T01:16:18;6.67;;;6.13;;
10731;SDS011;5417;42.686;23.244;2023-09-08T01:19:07;6.50;;;6.00;;
10731;SDS011;5417;42.686;23.244;2023-09-08T01:21:48;6.87;;;5.90;;
10731;SDS011;5417;42.686;23.244;2023-09-08T01:24:44;5.70;;;5.30;;
10731;SDS011;5417;42.686;23.244;2023-09-08T01:27:53;5.60;;;5.20;;
10731;SDS011;5417;42.686;23.244;2023-09-08T01:30:21;6.00;;;5.50;;
10731;SDS011;5417;42.686;23.244;2023-09-08T01:32:53;5.77;;;5.20;;
10731;SDS011;5417;42.686;23.244;2023-09-08T01:42:08;6.00;;;5.60;;
10731;SDS011;5417;42.686;23.244;2023-09-08T01:45:06;6.73;;;5.50;;
10731;SDS011;5417;42.686;23.244;2023-09-08T01:47:57;5.83;;;5.43;;
10731;SDS011;5417;42.686;23.244;2023-09-08T01:50:24;6.03;;;5.47;;
10731;SDS011;5417;42.686;23.244;2023-09-08T01:56:13;7.03;;;4.93;;
10731;SDS011;5417;42.686;23.244;2023-09-08T02:02:08;6.10;;;5.60;;
10731;SDS011;5417;42.686;23.244;2023-09-08T02:08:12;8.03;;;6.23;;
10731;SDS011;5417;42.686;23.244;2023-09-08T02:10:34;6.57;;;5.97;;
10731;SDS011;5417;42.686;23.244;2023-09-08T02:13:00;7.47;;;6.60;;
10731;SDS011;5417;42.686;23.244;2023-09-08T02:15:29;7.87;;;6.97;;
10731;SDS011;5417;42.686;23.244;2023-09-08T02:18:08;7.07;;;6.47;;
10731;SDS011;5417;42.686;23.244;2023-09-08T02:20:51;7.43;;;6.73;;
10731;SDS011;5417;42.686;23.244;2023-09-08T02:26:41;6.90;;;6.40;;
10731;SDS011;5417;42.686;23.244;2023-09-08T02:31:46;9.60;;;7.03;;
10731;SDS011;5417;42.686;23.244;2023-09-08T02:34:14;9.90;;;6.80;;
10731;SDS011;5417;42.686;23.244;2023-09-08T02:36:48;7.63;;;7.00;;
10731;SDS011;5417;42.686;23.244;2023-09-08T02:39:33;7.70;;;6.67;;
10731;SDS011;5417;42.686;23.244;2023-09-08T02:42:00;7.53;;;6.80;;
10731;SDS011;5417;42.686;23.244;2023-09-08T02:44:58;7.83;;;7.13;;
10731;SDS011;5417;42.686;23.244;2023-09-08T02:47:49;8.37;;;7.30;;
10731;SDS011;5417;42.686;23.244;2023-09-08T02:50:10;7.70;;;7.07;;
10731;SDS011;5417;42.686;23.244;2023-09-08T02:52:37;8.10;;;7.40;;
10731;SDS011;5417;42.686;23.244;2023-09-08T02:55:40;8.97;;;8.30;;
10731;SDS011;5417;42.686;23.244;2023-09-08T02:58:06;8.57;;;7.63;;
10731;SDS011;5417;42.686;23.244;2023-09-08T03:00:34;9.10;;;8.23;;
10731;SDS011;5417;42.686;23.244;2023-09-08T03:03:30;8.67;;;7.97;;
10731;SDS011;5417;42.686;23.244;2023-09-08T03:05:57;8.93;;;8.13;;
10731;SDS011;5417;42.686;23.244;2023-09-08T03:08:28;8.73;;;7.97;;
10731;SDS011;5417;42.686;23.244;2023-09-08T03:10:55;9.00;;;8.20;;
10731;SDS011;5417;42.686;23.244;2023-09-08T03:13:37;9.00;;;8.23;;
10731;SDS011;5417;42.686;23.244;2023-09-08T03:16:30;8.93;;;8.23;;
10731;SDS011;5417;42.686;23.244;2023-09-08T03:19:22;8.93;;;8.13;;
10731;SDS011;5417;42.686;23.244;2023-09-08T03:28:00;9.43;;;8.47;;
10731;SDS011;5417;42.686;23.244;2023-09-08T03:30:50;9.83;;;8.93;;
10731;SDS011;5417;42.686;23.244;2023-09-08T03:33:55;9.27;;;8.60;;
10731;SDS011;5417;42.686;23.244;2023-09-08T03:52:33;13.33;;;8.67;;
10731;SDS011;5417;42.686;23.244;2023-09-08T03:59:21;9.43;;;8.63;;
10731;SDS011;5417;42.686;23.244;2023-09-08T04:01:47;9.60;;;8.30;;
10731;SDS011;5417;42.686;23.244;2023-09-08T04:04:36;9.57;;;8.67;;
10731;SDS011;5417;42.686;23.244;2023-09-08T04:13:37;10.37;;;9.37;;
10731;SDS011;5417;42.686;23.244;2023-09-08T04:16:04;9.60;;;8.60;;
10731;SDS011;5417;42.686;23.244;2023-09-08T04:18:31;9.63;;;8.70;;
10731;SDS011;5417;42.686;23.244;2023-09-08T04:20:58;10.77;;;8.77;;
10731;SDS011;5417;42.686;23.244;2023-09-08T04:23:49;9.10;;;8.30;;
10731;SDS011;5417;42.686;23.244;2023-09-08T04:26:20;9.33;;;8.60;;
10731;SDS011;5417;42.686;23.244;2023-09-08T04:28:50;9.90;;;8.27;;
10731;SDS011;5417;42.686;23.244;2023-09-08T04:31:17;9.37;;;8.53;;
10731;SDS011;5417;42.686;23.244;2023-09-08T04:33:44;9.03;;;8.23;;
10731;SDS011;5417;42.686;23.244;2023-09-08T04:36:11;8.97;;;7.97;;
10731;SDS011;5417;42.686;23.244;2023-09-08T04:39:41;9.03;;;8.13;;
10731;SDS011;5417;42.686;23.244;2023-09-08T04:41:27;9.30;;;8.47;;
10731;SDS011;5417;42.686;23.244;2023-09-08T04:44:00;9.27;;;8.47;;
10731;SDS011;5417;42.686;23.244;2023-09-08T04:46:26;9.90;;;8.23;;
10731;SDS011;5417;42.686;23.244;2023-09-08T04:48:54;9.37;;;8.57;;
10731;SDS011;5417;42.686;23.244;2023-09-08T04:51:24;9.20;;;8.40;;
10731;SDS011;5417;42.686;23.244;2023-09-08T04:53:51;9.53;;;8.60;;
10731;SDS011;5417;42.686;23.244;2023-09-08T04:56:18;10.03;;;9.23;;
10731;SDS011;5417;42.686;23.244;2023-09-08T04:58:47;11.27;;;10.20;;
10731;SDS011;5417;42.686;23.244;2023-09-08T05:01:19;12.83;;;10.60;;
10731;SDS011;5417;42.686;23.244;2023-09-08T05:07:01;12.70;;;8.90;;
10731;SDS011;5417;42.686;23.244;2023-09-08T05:10:16;9.73;;;8.75;;
10731;SDS011;5417;42.686;23.244;2023-09-08T05:12:43;9.55;;;8.75;;
10731;SDS011;5417;42.686;23.244;2023-09-08T05:15:15;11.50;;;10.18;;
10731;SDS011;5417;42.686;23.244;2023-09-08T05:17:44;10.82;;;9.65;;
10731;SDS011;5417;42.686;23.244;2023-09-08T05:23:09;13.40;;;8.73;;
10731;SDS011;5417;42.686;23.244;2023-09-08T05:25:42;10.13;;;8.57;;
10731;SDS011;5417;42.686;23.244;2023-09-08T05:28:09;9.13;;;8.25;;
10731;SDS011;5417;42.686;23.244;2023-09-08T05:30:41;9.30;;;8.50;;
10731;SDS011;5417;42.686;23.244;2023-09-08T05:35:54;9.98;;;8.82;;
10731;SDS011;5417;42.686;23.244;2023-09-08T05:38:24;9.50;;;8.35;;
10731;SDS011;5417;42.686;23.244;2023-09-08T05:41:23;9.70;;;8.70;;
10731;SDS011;5417;42.686;23.244;2023-09-08T05:44:20;10.77;;;9.07;;
10731;SDS011;5417;42.686;23.244;2023-09-08T05:47:17;9.55;;;7.93;;
10731;SDS011;5417;42.686;23.244;2023-09-08T05:49:36;8.93;;;7.13;;
10731;SDS011;5417;42.686;23.244;2023-09-08T05:52:04;9.05;;;7.07;;
10731;SDS011;5417;42.686;23.244;2023-09-08T05:54:31;6.80;;;6.15;;
10731;SDS011;5417;42.686;23.244;2023-09-08T05:57:05;7.28;;;6.35;;
10731;SDS011;5417;42.686;23.244;2023-09-08T05:59:32;7.20;;;6.57;;
10731;SDS011;5417;42.686;23.244;2023-09-08T06:02:03;7.47;;;6.80;;
10731;SDS011;5417;42.686;23.244;2023-09-08T06:04:30;7.35;;;6.70;;
10731;SDS011;5417;42.686;23.244;2023-09-08T06:07:00;8.02;;;6.32;;
10731;SDS011;5417;42.686;23.244;2023-09-08T06:09:27;6.50;;;5.78;;
10731;SDS011;5417;42.686;23.244;2023-09-08T06:11:55;7.10;;;5.68;;
10731;SDS011;5417;42.686;23.244;2023-09-08T06:14:22;6.05;;;5.47;;
10731;SDS011;5417;42.686;23.244;2023-09-08T06:16:49;6.47;;;5.50;;
10731;SDS011;5417;42.686;23.244;2023-09-08T06:19:16;5.45;;;5.05;;
10731;SDS011;5417;42.686;23.244;2023-09-08T06:21:43;6.10;;;4.95;;
10731;SDS011;5417;42.686;23.244;2023-09-08T06:24:11;5.95;;;5.10;;
10731;SDS011;5417;42.686;23.244;2023-09-08T06:26:39;5.65;;;5.15;;
10731;SDS011;5417;42.686;23.244;2023-09-08T06:29:07;5.38;;;4.97;;
10731;SDS011;5417;42.686;23.244;2023-09-08T06:31:35;5.75;;;5.18;;
10731;SDS011;5417;42.686;23.244;2023-09-08T06:34:02;5.30;;;4.80;;
10731;SDS011;5417;42.686;23.244;2023-09-08T06:36:29;6.18;;;5.18;;
10731;SDS011;5417;42.686;23.244;2023-09-08T06:39:18;6.88;;;4.78;;
10731;SDS011;5417;42.686;23.244;2023-09-08T06:41:45;7.65;;;4.47;;
10731;SDS011;5417;42.686;23.244;2023-09-08T06:44:15;8.57;;;5.05;;
10731;SDS011;5417;42.686;23.244;2023-09-08T06:46:42;4.82;;;4.43;;
10731;SDS011;5417;42.686;23.244;2023-09-08T06:49:48;5.07;;;4.40;;
10731;SDS011;5417;42.686;23.244;2023-09-08T06:52:02;4.73;;;4.33;;
10731;SDS011;5417;42.686;23.244;2023-09-08T06:54:43;4.93;;;4.40;;
10731;SDS011;5417;42.686;23.244;2023-09-08T06:57:17;5.63;;;4.33;;
10731;SDS011;5417;42.686;23.244;2023-09-08T06:59:50;4.70;;;4.30;;
10731;SDS011;5417;42.686;23.244;2023-09-08T07:02:33;6.10;;;4.23;;
10731;SDS011;5417;42.686;23.244;2023-09-08T07:06:03;4.47;;;4.07;;
10731;SDS011;5417;42.686;23.244;2023-09-08T07:09:39;5.87;;;4.63;;
10731;SDS011;5417;42.686;23.244;2023-09-08T07:18:52;4.43;;;3.87;;
10731;SDS011;5417;42.686;23.244;2023-09-08T07:41:35;3.80;;;3.57;;
10731;SDS011;5417;42.686;23.244;2023-09-08T07:44:02;4.20;;;3.80;;
10731;SDS011;5417;42.686;23.244;2023-09-08T07:46:29;4.60;;;4.20;;
10731;SDS011;5417;42.686;23.244;2023-09-08T07:51:13;4.10;;;3.70;;
10731;SDS011;5417;42.686;23.244;2023-09-08T07:52:25;7.60;;;4.07;;
10731;SDS011;5417;42.686;23.244;2023-09-08T07:54:53;4.80;;;4.30;;
10731;SDS011;5417;42.686;23.244;2023-09-08T08:00:46;4.00;;;3.70;;
10731;SDS011;5417;42.686;23.244;2023-09-08T08:03:51;6.27;;;3.73;;
10731;SDS011;5417;42.686;23.244;2023-09-08T08:44:28;5.10;;;4.60;;
10731;SDS011;5417;42.686;23.244;2023-09-08T09:05:30;4.20;;;3.90;;
10731;SDS011;5417;42.686;23.244;2023-09-08T09:08:30;4.27;;;3.97;;
10731;SDS011;5417;42.686;23.244;2023-09-08T09:10:50;4.43;;;3.77;;
10731;SDS011;5417;42.686;23.244;2023-09-08T09:14:23;4.10;;;3.80;;
10731;SDS011;5417;42.686;23.244;2023-09-08T09:16:44;4.20;;;3.90;;
10731;SDS011;5417;42.686;23.244;2023-09-08T09:42:06;4.33;;;4.03;;
10731;SDS011;5417;42.686;23.244;2023-09-08T09:55:28;4.20;;;3.80;;
10731;SDS011;5417;42.686;23.244;2023-09-08T09:57:35;4.83;;;4.43;;
10731;SDS011;5417;42.686;23.244;2023-09-08T10:00:12;4.23;;;3.83;;
10731;SDS011;5417;42.686;23.244;2023-09-08T10:02:42;4.65;;;4.25;;
10731;SDS011;5417;42.686;23.244;2023-09-08T10:05:10;4.40;;;4.10;;
10731;SDS011;5417;42.686;23.244;2023-09-08T10:07:39;5.50;;;4.90;;
10731;SDS011;5417;42.686;23.244;2023-09-08T10:23:02;4.67;;;4.37;;
10731;SDS011;5417;42.686;23.244;2023-09-08T10:29:05;4.07;;;3.60;;
10731;SDS011;5417;42.686;23.244;2023-09-08T10:31:32;5.30;;;4.00;;
10731;SDS011;5417;42.686;23.244;2023-09-08T10:57:06;4.73;;;4.43;;
10731;SDS011;5417;42.686;23.244;2023-09-08T10:59:40;4.30;;;3.97;;
10731;SDS011;5417;42.686;23.244;2023-09-08T11:05:55;4.40;;;4.00;;
10731;SDS011;5417;42.686;23.244;2023-09-08T11:08:38;4.37;;;4.07;;
10731;SDS011;5417;42.686;23.244;2023-09-08T11:11:39;4.33;;;3.93;;
10731;SDS011;5417;42.686;23.244;2023-09-08T11:17:10;5.27;;;4.77;;
10731;SDS011;5417;42.686;23.244;2023-09-08T11:19:44;6.67;;;4.30;;
10731;SDS011;5417;42.686;23.244;2023-09-08T11:23:43;6.00;;;4.30;;
10731;SDS011;5417;42.686;23.244;2023-09-08T11:25:39;4.80;;;4.30;;
10731;SDS011;5417;42.686;23.244;2023-09-08T11:31:19;5.00;;;4.53;;
10731;SDS011;5417;42.686;23.244;2023-09-08T11:36:56;7.40;;;4.93;;
10731;SDS011;5417;42.686;23.244;2023-09-08T11:39:54;5.13;;;4.77;;
10731;SDS011;5417;42.686;23.244;2023-09-08T11:42:30;4.73;;;4.40;;
10731;SDS011;5417;42.686;23.244;2023-09-08T11:45:38;4.70;;;4.30;;
10731;SDS011;5417;42.686;23.244;2023-09-08T11:48:09;5.20;;;4.60;;
10731;SDS011;5417;42.686;23.244;2023-09-08T12:03:14;4.40;;;4.07;;
10731;SDS011;5417;42.686;23.244;2023-09-08T12:05:41;4.70;;;4.30;;
10731;SDS011;5417;42.686;23.244;2023-09-08T12:08:48;4.43;;;4.13;;
10731;SDS011;5417;42.686;23.244;2023-09-08T12:11:02;4.50;;;4.10;;
10731;SDS011;5417;42.686;23.244;2023-09-08T12:13:29;4.70;;;4.30;;
10731;SDS011;5417;42.686;23.244;2023-09-08T12:15:56;5.17;;;4.67;;
10731;SDS011;5417;42.686;23.244;2023-09-08T12:18:38;4.67;;;4.27;;
10731;SDS011;5417;42.686;23.244;2023-09-08T12:21:06;4.63;;;4.20;;
10731;SDS011;5417;42.686;23.244;2023-09-08T12:23:33;4.67;;;4.37;;
10731;SDS011;5417;42.686;23.244;2023-09-08T12:28:44;4.97;;;4.50;;
10731;SDS011;5417;42.686;23.244;2023-09-08T12:31:14;5.30;;;4.43;;
10731;SDS011;5417;42.686;23.244;2023-09-08T12:33:43;4.63;;;4.23;;
10731;SDS011;5417;42.686;23.244;2023-09-08T12:36:10;5.23;;;4.67;;
10731;SDS011;5417;42.686;23.244;2023-09-08T12:38:40;4.90;;;4.50;;
10731;SDS011;5417;42.686;23.244;2023-09-08T12:41:21;5.87;;;5.20;;
10731;SDS011;5417;42.686;23.244;2023-09-08T12:44:12;6.20;;;5.80;;
10731;SDS011;5417;42.686;23.244;2023-09-08T12:47:12;5.00;;;4.50;;
10731;SDS011;5417;42.686;23.244;2023-09-08T12:50:06;5.23;;;4.70;;
10731;SDS011;5417;42.686;23.244;2023-09-08T12:53:50;5.23;;;4.70;;
10731;SDS011;5417;42.686;23.244;2023-09-08T12:55:51;5.13;;;4.70;;
10731;SDS011;5417;42.686;23.244;2023-09-08T13:01:26;7.23;;;4.20;;
10731;SDS011;5417;42.686;23.244;2023-09-08T13:03:53;5.07;;;4.67;;
10731;SDS011;5417;42.686;23.244;2023-09-08T13:06:21;7.67;;;6.97;;
10731;SDS011;5417;42.686;23.244;2023-09-08T13:08:48;5.17;;;4.63;;
10731;SDS011;5417;42.686;23.244;2023-09-08T13:14:59;4.90;;;4.50;;
10731;SDS011;5417;42.686;23.244;2023-09-08T13:23:22;4.90;;;4.50;;
10731;SDS011;5417;42.686;23.244;2023-09-08T13:31:43;4.50;;;4.10;;
10731;SDS011;5417;42.686;23.244;2023-09-08T13:34:12;4.77;;;4.47;;
10731;SDS011;5417;42.686;23.244;2023-09-08T13:36:39;6.83;;;4.50;;
10731;SDS011;5417;42.686;23.244;2023-09-08T13:41:59;5.30;;;4.80;;
10731;SDS011;5417;42.686;23.244;2023-09-08T13:44:28;4.77;;;4.40;;
10731;SDS011;5417;42.686;23.244;2023-09-08T13:48:06;4.00;;;3.80;;
10731;SDS011;5417;42.686;23.244;2023-09-08T13:50:19;4.70;;;4.30;;
10731;SDS011;5417;42.686;23.244;2023-09-08T13:52:45;4.83;;;4.47;;
10731;SDS011;5417;42.686;23.244;2023-09-08T13:55:14;4.60;;;4.30;;
10731;SDS011;5417;42.686;23.244;2023-09-08T14:01:07;4.70;;;4.33;;
10731;SDS011;5417;42.686;23.244;2023-09-08T14:03:41;5.43;;;4.93;;
10731;SDS011;5417;42.686;23.244;2023-09-08T14:06:31;5.70;;;5.20;;
10731;SDS011;5417;42.686;23.244;2023-09-08T14:09:25;4.77;;;4.37;;
10731;SDS011;5417;42.686;23.244;2023-09-08T14:12:04;5.30;;;4.90;;
10731;SDS011;5417;42.686;23.244;2023-09-08T14:14:34;5.07;;;4.00;;
10731;SDS011;5417;42.686;23.244;2023-09-08T14:17:59;6.37;;;4.77;;
10731;SDS011;5417;42.686;23.244;2023-09-08T14:20:15;4.90;;;4.53;;
10731;SDS011;5417;42.686;23.244;2023-09-08T14:22:41;6.03;;;4.27;;
10731;SDS011;5417;42.686;23.244;2023-09-08T14:25:08;5.93;;;4.47;;
10731;SDS011;5417;42.686;23.244;2023-09-08T14:34:27;5.27;;;4.83;;
10731;SDS011;5417;42.686;23.244;2023-09-08T14:36:54;5.53;;;4.50;;
10731;SDS011;5417;42.686;23.244;2023-09-08T14:45:41;4.90;;;4.57;;
10731;SDS011;5417;42.686;23.244;2023-09-08T14:48:08;4.53;;;4.10;;
10731;SDS011;5417;42.686;23.244;2023-09-08T14:53:18;4.93;;;4.03;;
10731;SDS011;5417;42.686;23.244;2023-09-08T14:55:51;4.27;;;4.03;;
10731;SDS011;5417;42.686;23.244;2023-09-08T15:01:36;4.53;;;4.23;;
10731;SDS011;5417;42.686;23.244;2023-09-08T15:04:05;4.50;;;4.20;;
10731;SDS011;5417;42.686;23.244;2023-09-08T15:09:44;5.03;;;4.63;;
10731;SDS011;5417;42.686;23.244;2023-09-08T15:12:10;4.80;;;4.50;;
10731;SDS011;5417;42.686;23.244;2023-09-08T15:14:37;5.47;;;4.77;;
10731;SDS011;5417;42.686;23.244;2023-09-08T15:17:04;6.20;;;5.30;;
10731;SDS011;5417;42.686;23.244;2023-09-08T15:25:25;4.70;;;4.40;;
10731;SDS011;5417;42.686;23.244;2023-09-08T15:33:03;4.83;;;4.47;;
10731;SDS011;5417;42.686;23.244;2023-09-08T15:35:31;4.77;;;4.30;;
10731;SDS011;5417;42.686;23.244;2023-09-08T15:37:58;6.73;;;4.47;;
10731;SDS011;5417;42.686;23.244;2023-09-08T15:41:12;5.83;;;4.80;;
10731;SDS011;5417;42.686;23.244;2023-09-08T15:43:38;4.70;;;4.40;;
10731;SDS011;5417;42.686;23.244;2023-09-08T15:48:52;5.03;;;4.10;;
10731;SDS011;5417;42.686;23.244;2023-09-08T15:49:33;5.17;;;4.60;;
10731;SDS011;5417;42.686;23.244;2023-09-08T15:52:01;5.83;;;4.67;;
10731;SDS011;5417;42.686;23.244;2023-09-08T15:55:30;5.43;;;4.63;;
10731;SDS011;5417;42.686;23.244;2023-09-08T15:57:53;5.00;;;4.50;;
10731;SDS011;5417;42.686;23.244;2023-09-08T16:00:20;6.30;;;4.57;;
10731;SDS011;5417;42.686;23.244;2023-09-08T16:02:53;5.83;;;4.77;;
10731;SDS011;5417;42.686;23.244;2023-09-08T16:05:21;5.37;;;4.83;;
10731;SDS011;5417;42.686;23.244;2023-09-08T16:07:48;6.37;;;4.60;;
10731;SDS011;5417;42.686;23.244;2023-09-08T16:10:29;4.83;;;4.40;;
10731;SDS011;5417;42.686;23.244;2023-09-08T16:12:56;6.50;;;4.70;;
10731;SDS011;5417;42.686;23.244;2023-09-08T16:15:23;5.07;;;4.40;;
10731;SDS011;5417;42.686;23.244;2023-09-08T16:17:50;4.90;;;4.50;;
10731;SDS011;5417;42.686;23.244;2023-09-08T16:20:17;4.87;;;4.47;;
10731;SDS011;5417;42.686;23.244;2023-09-08T16:22:46;5.00;;;4.60;;
10731;SDS011;5417;42.686;23.244;2023-09-08T16:26:15;5.00;;;4.57;;
10731;SDS011;5417;42.686;23.244;2023-09-08T16:28:54;5.03;;;4.63;;
10731;SDS011;5417;42.686;23.244;2023-09-08T16:31:13;4.63;;;4.33;;
10731;SDS011;5417;42.686;23.244;2023-09-08T16:33:46;4.37;;;4.17;;
10731;SDS011;5417;42.686;23.244;2023-09-08T16:36:13;5.13;;;4.63;;
10731;SDS011;5417;42.686;23.244;2023-09-08T16:41:45;6.30;;;4.97;;
10731;SDS011;5417;42.686;23.244;2023-09-08T16:44:12;5.03;;;4.73;;
10731;SDS011;5417;42.686;23.244;2023-09-08T16:46:39;5.80;;;5.20;;
10731;SDS011;5417;42.686;23.244;2023-09-08T16:49:09;4.47;;;4.17;;
10731;SDS011;5417;42.686;23.244;2023-09-08T16:52:11;4.90;;;4.43;;
10731;SDS011;5417;42.686;23.244;2023-09-08T17:03:12;4.90;;;4.60;;
10731;SDS011;5417;42.686;23.244;2023-09-08T17:06:23;5.27;;;4.43;;
10731;SDS011;5417;42.686;23.244;2023-09-08T17:09:13;5.53;;;4.70;;
10731;SDS011;5417;42.686;23.244;2023-09-08T17:11:54;7.07;;;5.13;;
10731;SDS011;5417;42.686;23.244;2023-09-08T17:14:21;5.80;;;5.30;;
10731;SDS011;5417;42.686;23.244;2023-09-08T17:16:48;5.63;;;4.67;;
10731;SDS011;5417;42.686;23.244;2023-09-08T17:19:15;4.83;;;4.47;;
10731;SDS011;5417;42.686;23.244;2023-09-08T17:21:42;5.53;;;5.07;;
10731;SDS011;5417;42.686;23.244;2023-09-08T17:24:10;6.07;;;5.00;;
10731;SDS011;5417;42.686;23.244;2023-09-08T17:26:37;5.50;;;5.00;;
10731;SDS011;5417;42.686;23.244;2023-09-08T17:32:14;5.93;;;5.30;;
10731;SDS011;5417;42.686;23.244;2023-09-08T17:34:48;6.70;;;4.27;;
10731;SDS011;5417;42.686;23.244;2023-09-08T17:37:27;5.93;;;5.40;;
10731;SDS011;5417;42.686;23.244;2023-09-08T17:39:54;5.17;;;4.77;;
10731;SDS011;5417;42.686;23.244;2023-09-08T17:45:43;4.73;;;4.30;;
10731;SDS011;5417;42.686;23.244;2023-09-08T17:49:13;5.30;;;4.90;;
10731;SDS011;5417;42.686;23.244;2023-09-08T17:51:25;4.90;;;4.60;;
10731;SDS011;5417;42.686;23.244;2023-09-08T17:54:22;6.30;;;5.23;;
10731;SDS011;5417;42.686;23.244;2023-09-08T17:56:57;9.23;;;4.50;;
10731;SDS011;5417;42.686;23.244;2023-09-08T17:59:24;5.53;;;5.13;;
10731;SDS011;5417;42.686;23.244;2023-09-08T18:05:14;8.17;;;4.73;;
10731;SDS011;5417;42.686;23.244;2023-09-08T18:07:43;5.67;;;4.47;;
10731;SDS011;5417;42.686;23.244;2023-09-08T18:10:10;6.27;;;4.70;;
10731;SDS011;5417;42.686;23.244;2023-09-08T18:12:45;5.80;;;5.20;;
10731;SDS011;5417;42.686;23.244;2023-09-08T18:16:32;5.23;;;4.50;;
10731;SDS011;5417;42.686;23.244;2023-09-08T18:18:50;5.67;;;5.27;;
10731;SDS011;5417;42.686;23.244;2023-09-08T18:21:42;5.77;;;5.10;;
10731;SDS011;5417;42.686;23.244;2023-09-08T18:24:10;5.70;;;5.20;;
10731;SDS011;5417;42.686;23.244;2023-09-08T18:26:37;5.00;;;4.50;;
10731;SDS011;5417;42.686;23.244;2023-09-08T18:29:04;5.13;;;4.77;;
10731;SDS011;5417;42.686;23.244;2023-09-08T18:31:31;5.53;;;5.10;;
10731;SDS011;5417;42.686;23.244;2023-09-08T18:33:59;9.20;;;5.70;;
10731;SDS011;5417;42.686;23.244;2023-09-08T18:36:41;5.20;;;4.70;;
10731;SDS011;5417;42.686;23.244;2023-09-08T18:39:10;5.07;;;4.77;;
10731;SDS011;5417;42.686;23.244;2023-09-08T18:41:37;5.53;;;5.03;;
10731;SDS011;5417;42.686;23.244;2023-09-08T18:44:04;5.93;;;5.43;;
10731;SDS011;5417;42.686;23.244;2023-09-08T18:46:33;5.70;;;5.30;;
10731;SDS011;5417;42.686;23.244;2023-09-08T18:49:13;7.37;;;5.00;;
10731;SDS011;5417;42.686;23.244;2023-09-08T18:51:44;6.97;;;6.30;;
10731;SDS011;5417;42.686;23.244;2023-09-08T18:54:12;6.87;;;6.17;;
10731;SDS011;5417;42.686;23.244;2023-09-08T18:56:43;23.03;;;17.93;;
10731;SDS011;5417;42.686;23.244;2023-09-08T18:59:12;6.30;;;5.87;;
10731;SDS011;5417;42.686;23.244;2023-09-08T19:01:48;6.00;;;5.40;;
10731;SDS011;5417;42.686;23.244;2023-09-08T19:04:16;6.27;;;5.70;;
10731;SDS011;5417;42.686;23.244;2023-09-08T19:06:46;6.37;;;5.77;;
10731;SDS011;5417;42.686;23.244;2023-09-08T19:09:13;6.10;;;5.57;;
10731;SDS011;5417;42.686;23.244;2023-09-08T19:11:54;6.83;;;5.50;;
10731;SDS011;5417;42.686;23.244;2023-09-08T19:14:21;5.93;;;5.53;;
10731;SDS011;5417;42.686;23.244;2023-09-08T19:16:51;10.70;;;5.87;;
10731;SDS011;5417;42.686;23.244;2023-09-08T19:19:18;6.20;;;5.67;;
10731;SDS011;5417;42.686;23.244;2023-09-08T19:24:33;7.43;;;5.50;;
10731;SDS011;5417;42.686;23.244;2023-09-08T19:30:20;5.30;;;4.90;;
10731;SDS011;5417;42.686;23.244;2023-09-08T19:32:50;5.70;;;5.20;;
10731;SDS011;5417;42.686;23.244;2023-09-08T19:35:20;5.37;;;5.07;;
10731;SDS011;5417;42.686;23.244;2023-09-08T19:50:07;6.33;;;5.80;;
10731;SDS011;5417;42.686;23.244;2023-09-08T19:52:39;8.47;;;6.57;;
10731;SDS011;5417;42.686;23.244;2023-09-08T19:55:58;6.07;;;5.47;;
10731;SDS011;5417;42.686;23.244;2023-09-08T20:10:02;5.40;;;5.00;;
10731;SDS011;5417;42.686;23.244;2023-09-08T20:12:33;5.00;;;4.53;;
10731;SDS011;5417;42.686;23.244;2023-09-08T20:18:30;4.70;;;4.30;;
10731;SDS011;5417;42.686;23.244;2023-09-08T20:21:05;5.03;;;4.60;;
10731;SDS011;5417;42.686;23.244;2023-09-08T20:33:55;5.97;;;5.17;;
10731;SDS011;5417;42.686;23.244;2023-09-08T20:36:22;14.43;;;4.70;;
10731;SDS011;5417;42.686;23.244;2023-09-08T20:42:18;5.73;;;5.10;;
10731;SDS011;5417;42.686;23.244;2023-09-08T20:47:54;5.33;;;4.80;;
10731;SDS011;5417;42.686;23.244;2023-09-08T20:50:23;8.27;;;4.97;;
10731;SDS011;5417;42.686;23.244;2023-09-08T20:52:52;5.60;;;4.70;;
10731;SDS011;5417;42.686;23.244;2023-09-08T20:55:22;4.57;;;4.27;;
10731;SDS011;5417;42.686;23.244;2023-09-08T20:59:08;5.57;;;5.20;;
10731;SDS011;5417;42.686;23.244;2023-09-08T21:01:49;4.87;;;4.50;;
10731;SDS011;5417;42.686;23.244;2023-09-08T21:04:10;5.23;;;4.73;;
10731;SDS011;5417;42.686;23.244;2023-09-08T21:12:42;5.90;;;4.20;;
10731;SDS011;5417;42.686;23.244;2023-09-08T21:15:13;7.57;;;4.37;;
10731;SDS011;5417;42.686;23.244;2023-09-08T21:27:05;4.87;;;4.30;;
10731;SDS011;5417;42.686;23.244;2023-09-08T21:29:34;5.17;;;4.70;;
10731;SDS011;5417;42.686;23.244;2023-09-08T21:42:51;5.00;;;4.60;;
10731;SDS011;5417;42.686;23.244;2023-09-08T21:45:20;5.90;;;4.90;;
10731;SDS011;5417;42.686;23.244;2023-09-08T21:47:51;4.87;;;4.57;;
10731;SDS011;5417;42.686;23.244;2023-09-08T21:51:36;5.70;;;4.70;;
10731;SDS011;5417;42.686;23.244;2023-09-08T21:53:29;6.37;;;5.23;;
10731;SDS011;5417;42.686;23.244;2023-09-08T21:56:26;6.33;;;4.87;;
10731;SDS011;5417;42.686;23.244;2023-09-08T21:59:00;5.43;;;4.70;;
10731;SDS011;5417;42.686;23.244;2023-09-08T22:01:31;5.33;;;4.93;;
10731;SDS011;5417;42.686;23.244;2023-09-08T22:04:00;5.20;;;4.80;;
10731;SDS011;5417;42.686;23.244;2023-09-08T22:10:18;5.50;;;4.87;;
10731;SDS011;5417;42.686;23.244;2023-09-08T22:12:41;5.67;;;5.17;;
10731;SDS011;5417;42.686;23.244;2023-09-08T22:21:27;5.43;;;4.93;;
10731;SDS011;5417;42.686;23.244;2023-09-08T22:23:57;5.93;;;4.60;;
10731;SDS011;5417;42.686;23.244;2023-09-08T22:26:26;5.37;;;4.70;;
10731;SDS011;5417;42.686;23.244;2023-09-08T22:32:25;6.20;;;5.00;;
10731;SDS011;5417;42.686;23.244;2023-09-08T23:06:53;5.10;;;4.70;;
10731;SDS011;5417;42.686;23.244;2023-09-08T23:10:09;6.13;;;4.50;;
10731;SDS011;5417;42.686;23.244;2023-09-08T23:22:57;5.37;;;4.67;;
10731;SDS011;5417;42.686;23.244;2023-09-08T23:26:27;7.27;;;4.50;;
10731;SDS011;5417;42.686;23.244;2023-09-08T23:46:19;6.03;;;4.90;;
10731;SDS011;5417;42.686;23.244;2023-09-08T23:48:10;6.57;;;4.97;;
10731;SDS011;5417;42.686;23.244;2023-09-08T23:53:25;5.03;;;4.63;;
